createdAt,value
2019-02-20T00:02:57.316Z,101977.80
2019-02-20T00:08:01.268Z,101990.34
2019-02-20T00:13:05.375Z,101985.09
2019-02-20T00:18:09.228Z,101992.89
2019-02-20T00:23:13.264Z,101987.17
2019-02-20T00:28:17.223Z,101992.03
2019-02-20T00:33:21.443Z,101998.17
2019-02-20T00:38:25.397Z,102000.77
2019-02-20T00:43:29.415Z,102008.67
2019-02-20T00:48:47.188Z,102004.52
2019-02-20T00:53:55.306Z,102007.99
2019-02-20T00:58:59.270Z,102012.87
2019-02-20T01:04:03.398Z,102005.20
2019-02-20T01:09:08.051Z,101995.80
2019-02-20T01:14:12.142Z,102011.27
2019-02-20T01:19:16.040Z,102014.29
2019-02-20T01:24:19.929Z,102005.76
2019-02-20T01:29:23.788Z,102007.13
2019-02-20T01:34:27.918Z,101999.37
2019-02-20T01:39:32.132Z,101990.32
2019-02-20T01:44:36.127Z,101992.92
2019-02-20T01:49:40.091Z,101988.52
2019-02-20T01:54:44.198Z,101992.94
2019-02-20T01:59:48.086Z,101983.58
2019-02-20T02:04:52.036Z,101977.97
2019-02-20T02:09:56.030Z,101969.75
2019-02-20T02:14:59.834Z,101967.52
2019-02-20T02:20:03.642Z,101975.83
2019-02-20T02:25:07.460Z,101970.67
2019-02-20T02:30:12.306Z,101968.09
2019-02-20T02:35:16.246Z,101962.37
2019-02-20T02:40:20.061Z,101955.41
2019-02-20T02:45:23.929Z,101968.95
2019-02-20T02:50:27.874Z,101970.62
2019-02-20T02:55:31.698Z,101979.22
2019-02-20T03:00:35.526Z,101968.81
2019-02-20T03:05:39.434Z,101970.47
2019-02-20T03:10:43.598Z,101971.77
2019-02-20T03:15:47.796Z,101980.41
2019-02-20T03:20:51.608Z,101984.24
2019-02-20T03:25:55.406Z,101986.42
2019-02-20T03:30:59.325Z,101989.09
2019-02-20T03:36:03.194Z,101989.09
2019-02-20T03:41:06.982Z,101990.80
2019-02-20T03:46:10.821Z,101991.89
2019-02-20T03:51:14.659Z,101993.50
2019-02-20T03:56:18.582Z,101997.86
2019-02-20T04:01:22.400Z,101996.09
2019-02-20T04:06:26.234Z,101998.33
2019-02-20T04:11:30.083Z,102007.84
2019-02-20T04:16:33.890Z,102008.09
2019-02-20T04:21:37.787Z,102009.33
2019-02-20T04:26:41.665Z,102008.56
2019-02-20T04:31:45.666Z,102007.31
2019-02-20T04:36:49.523Z,102008.56
2019-02-20T04:41:53.337Z,102010.20
2019-02-20T04:46:57.261Z,102013.17
2019-02-20T04:52:01.194Z,102005.16
2019-02-20T04:57:04.993Z,102006.34
2019-02-20T05:02:08.815Z,102008.41
2019-02-20T05:07:12.711Z,102010.00
2019-02-20T05:12:16.646Z,102017.69
2019-02-20T05:17:20.625Z,102015.09
2019-02-20T05:22:24.470Z,102018.11
2019-02-20T05:27:28.380Z,102009.02
2019-02-20T05:32:32.279Z,102013.74
2019-02-20T05:37:36.104Z,102011.95
2019-02-20T05:42:39.968Z,102004.53
2019-02-20T05:47:43.794Z,102006.66
2019-02-20T05:52:47.611Z,101996.69
2019-02-20T05:57:51.499Z,102008.38
2019-02-20T06:02:55.350Z,102017.39
2019-02-20T06:07:59.139Z,102012.56
2019-02-20T06:13:02.960Z,102029.31
2019-02-20T06:18:06.805Z,102030.56
2019-02-20T06:23:10.602Z,102037.94
2019-02-20T06:28:14.446Z,102045.37
2019-02-20T06:33:18.343Z,102044.90
2019-02-20T06:38:22.376Z,102039.63
2019-02-20T06:43:26.368Z,102046.95
2019-02-20T06:48:30.266Z,102052.44
2019-02-20T06:53:34.434Z,102051.91
2019-02-20T06:58:38.360Z,102053.96
2019-02-20T07:03:42.797Z,102063.77
2019-02-20T07:09:33.515Z,102064.58
2019-02-20T07:15:08.160Z,102063.61
2019-02-20T07:21:08.066Z,102071.20
2019-02-20T07:26:45.073Z,102066.87
2019-02-20T07:31:49.074Z,102075.23
2019-02-20T07:36:52.976Z,102071.48
2019-02-20T07:41:56.971Z,102075.50
2019-02-20T07:47:02.458Z,102089.97
2019-02-20T07:52:06.455Z,102097.00
2019-02-20T07:57:10.456Z,102098.08
2019-02-20T08:02:14.413Z,102106.16
2019-02-20T08:07:18.436Z,102118.10
2019-02-20T08:12:22.426Z,102113.22
2019-02-20T08:17:26.632Z,102115.69
2019-02-20T08:22:30.557Z,102121.94
2019-02-20T08:27:34.482Z,102125.15
2019-02-20T08:32:38.486Z,102131.05
2019-02-20T08:37:42.325Z,102134.70
2019-02-20T08:42:46.244Z,102149.19
2019-02-20T08:47:50.558Z,102157.34
2019-02-20T08:52:54.530Z,102160.70
2019-02-20T08:57:58.534Z,102159.16
2019-02-20T09:03:02.522Z,102156.78
2019-02-20T09:08:06.434Z,102151.38
2019-02-20T09:13:10.384Z,102152.94
2019-02-20T09:18:14.360Z,102150.36
2019-02-20T09:23:18.282Z,102151.96
2019-02-20T09:28:22.969Z,102140.50
2019-02-20T09:33:27.391Z,102143.33
2019-02-20T09:38:31.272Z,102146.55
2019-02-20T09:43:35.227Z,102145.60
2019-02-20T09:48:39.232Z,102143.84
2019-02-20T09:53:43.254Z,102148.61
2019-02-20T09:58:47.168Z,102153.02
2019-02-20T10:03:51.094Z,102151.98
2019-02-20T10:08:55.145Z,102158.05
2019-02-20T10:13:59.184Z,102160.52
2019-02-20T10:19:03.228Z,102161.69
2019-02-20T10:24:07.169Z,102161.93
2019-02-20T10:29:11.166Z,102163.20
2019-02-20T10:34:15.152Z,102169.84
2019-02-20T10:39:19.190Z,102175.94
2019-02-20T10:44:23.034Z,102189.91
2019-02-20T10:49:27.223Z,102199.31
2019-02-20T10:54:31.148Z,102197.66
2019-02-20T10:59:35.171Z,102194.75
2019-02-20T11:04:39.071Z,102192.32
2019-02-20T11:09:42.992Z,102194.34
2019-02-20T11:14:48.913Z,102196.70
2019-02-20T11:19:52.912Z,102198.38
2019-02-20T11:24:56.747Z,102198.11
2019-02-20T11:30:00.842Z,102190.39
2019-02-20T11:35:05.787Z,102187.27
2019-02-20T11:40:10.881Z,102192.08
2019-02-20T11:45:15.222Z,102184.94
2019-02-20T11:50:19.379Z,102186.37
2019-02-20T11:55:24.042Z,102180.08
2019-02-20T12:00:28.396Z,102180.23
2019-02-20T12:05:32.373Z,102176.02
2019-02-20T12:10:37.329Z,102176.63
2019-02-20T12:15:42.192Z,102180.17
2019-02-20T12:20:46.420Z,102187.19
2019-02-20T12:25:50.422Z,102180.64
2019-02-20T12:30:54.404Z,102186.78
2019-02-20T12:35:58.291Z,102192.77
2019-02-20T12:41:02.196Z,102193.88
2019-02-20T12:46:06.063Z,102193.44
2019-02-20T12:51:10.207Z,102180.94
2019-02-20T12:56:14.172Z,102174.08
2019-02-20T13:01:18.135Z,102183.23
2019-02-20T13:06:22.063Z,102182.82
2019-02-20T13:11:26.252Z,102177.27
2019-02-20T13:16:30.238Z,102179.91
2019-02-20T13:21:34.247Z,102176.84
2019-02-20T13:26:41.065Z,102183.86
2019-02-20T13:31:44.896Z,102172.92
2019-02-20T13:36:48.960Z,102171.17
2019-02-20T13:41:52.964Z,102171.62
2019-02-20T13:46:56.955Z,102172.43
2019-02-20T13:52:01.244Z,102165.41
2019-02-20T13:57:05.458Z,102167.62
2019-02-20T14:02:11.221Z,102171.12
2019-02-20T14:07:15.045Z,102172.45
2019-02-20T14:12:18.947Z,102168.58
2019-02-20T14:17:26.758Z,102172.59
2019-02-20T14:22:28.726Z,102168.73
2019-02-20T14:27:33.108Z,102178.23
2019-02-20T14:32:36.968Z,102184.36
2019-02-20T14:37:40.980Z,102187.84
2019-02-20T14:42:45.163Z,102184.36
2019-02-20T14:47:48.970Z,102183.53
2019-02-20T14:52:53.480Z,102186.16
2019-02-20T14:57:57.462Z,102189.22
2019-02-20T15:03:01.380Z,102190.96
2019-02-20T15:08:05.580Z,102192.28
2019-02-20T15:13:09.708Z,102194.42
2019-02-20T15:18:14.116Z,102190.52
2019-02-20T15:23:18.199Z,102191.84
2019-02-20T15:28:22.128Z,102190.56
2019-02-20T15:33:26.249Z,102186.67
2019-02-20T15:38:30.183Z,102192.80
2019-02-20T15:43:34.590Z,102191.05
2019-02-20T15:48:38.842Z,102194.97
2019-02-20T15:53:42.965Z,102204.13
2019-02-20T15:58:47.047Z,102200.16
2019-02-20T16:03:50.990Z,102193.19
2019-02-20T16:08:55.161Z,102193.23
2019-02-20T16:14:00.818Z,102200.20
2019-02-20T16:19:04.790Z,102194.52
2019-02-20T16:24:08.708Z,102197.59
2019-02-20T16:29:13.653Z,102199.78
2019-02-20T16:34:18.069Z,102195.85
2019-02-20T16:39:21.924Z,102192.76
2019-02-20T16:44:26.001Z,102201.04
2019-02-20T16:49:29.918Z,102208.44
2019-02-20T16:54:33.992Z,102204.91
2019-02-20T16:59:38.286Z,102214.07
2019-02-20T17:04:42.345Z,102211.02
2019-02-20T17:09:46.418Z,102221.96
2019-02-20T17:14:50.582Z,102225.03
2019-02-20T17:19:54.842Z,102232.86
2019-02-20T17:24:59.130Z,102235.45
2019-02-20T17:30:03.241Z,102239.77
2019-02-20T17:35:08.955Z,102241.41
2019-02-20T17:40:13.699Z,102245.77
2019-02-20T17:45:17.713Z,102240.89
2019-02-20T17:50:21.975Z,102243.91
2019-02-20T17:55:25.983Z,102246.03
2019-02-20T18:00:30.415Z,102254.77
2019-02-20T18:05:34.398Z,102257.80
2019-02-20T18:10:38.320Z,102261.64
2019-02-20T18:15:42.363Z,102262.91
2019-02-20T18:20:46.335Z,102259.40
2019-02-20T18:25:50.224Z,102259.39
2019-02-20T18:30:54.190Z,102264.52
2019-02-20T18:35:58.105Z,102265.34
2019-02-20T18:41:02.650Z,102259.63
2019-02-20T18:46:06.746Z,102267.47
2019-02-20T18:51:10.773Z,102274.45
2019-02-20T18:56:15.106Z,102273.52
2019-02-20T19:01:19.211Z,102275.57
2019-02-20T19:06:23.193Z,102275.11
2019-02-20T19:11:40.836Z,102282.89
2019-02-20T19:17:10.080Z,102283.67
2019-02-20T19:22:42.513Z,102282.70
2019-02-20T19:28:18.920Z,102287.89
2019-02-20T19:33:56.813Z,102289.55
2019-02-20T19:39:21.962Z,102279.70
2019-02-20T19:44:47.733Z,102282.14
2019-02-20T19:50:14.887Z,102281.20
2019-02-20T19:55:31.592Z,102282.41
2019-02-20T20:01:14.678Z,102286.27
2019-02-20T20:07:02.671Z,102289.64
2019-02-20T20:12:44.683Z,102291.34
2019-02-20T20:18:21.609Z,102298.23
2019-02-20T20:23:48.645Z,102306.27
2019-02-20T20:29:27.427Z,102305.17
2019-02-20T20:35:34.106Z,102302.38
2019-02-20T20:41:14.002Z,102297.42
2019-02-20T20:46:35.264Z,102291.17
2019-02-20T20:52:12.018Z,102291.44
2019-02-20T20:57:23.421Z,102296.47
2019-02-20T21:02:41.660Z,102293.94
2019-02-20T21:08:15.883Z,102298.54
2019-02-20T21:13:54.240Z,102297.03
2019-02-20T21:19:31.668Z,102298.72
2019-02-20T21:25:23.631Z,102293.84
2019-02-20T21:31:02.020Z,102287.65
2019-02-20T21:36:12.778Z,102291.05
2019-02-20T21:42:02.280Z,102296.99
2019-02-20T21:47:16.096Z,102287.77
2019-02-20T21:53:02.410Z,102288.86
2019-02-20T21:58:56.700Z,102284.86
2019-02-20T22:04:38.268Z,102293.52
2019-02-20T22:10:09.660Z,102295.53
2019-02-20T22:15:34.964Z,102300.38
2019-02-20T22:21:10.636Z,102312.96
2019-02-20T22:27:14.171Z,102315.79
2019-02-20T22:32:39.041Z,102309.69
2019-02-20T22:38:00.036Z,102305.14
2019-02-20T22:43:51.588Z,102315.02
2019-02-20T22:49:28.396Z,102317.48
2019-02-20T22:55:31.700Z,102326.52
2019-02-20T23:01:16.540Z,102332.39
2019-02-20T23:06:46.246Z,102340.06
2019-02-20T23:12:14.549Z,102349.92
2019-02-20T23:17:18.363Z,102345.81
2019-02-20T23:22:22.265Z,102344.36
2019-02-20T23:27:26.328Z,102349.94
2019-02-20T23:32:30.325Z,102345.09
2019-02-20T23:37:34.302Z,102343.70
2019-02-20T23:42:38.766Z,102351.92
2019-02-20T23:47:42.770Z,102345.67
2019-02-20T23:52:47.270Z,102353.44
2019-02-20T23:57:51.254Z,102355.10
